Twin Falls, ID

9:05 AM MST on December 28, 2014 (GMT -0700)
Joslin Field-Magic Valley Regional | Change Station
CLOSE
Current Station
Airport
Location: Twin Falls,
Elevation: 4150 ft
Nearby Weather Stations
Active Advisory: Winter Weather Advisory

Elev 4150 ft 42.48 °N, 114.49 °W | Updated 12 minutes ago

Mostly Cloudy
Mostly Cloudy
32 °F
Feels Like 22 °F
N
15
Wind Variable Wind from WSW

Today
High -- | Low -- °F
--% Chance of Precip.
Yesterday
High -- | Low -- °F
Precip. -- in
8:06 AM 5:12 PM
Waxing Crescent, 49% visible
Pressure 30.06 in
Visibility 10.0 miles
Clouds Scattered Clouds 1600 ft
Scattered Clouds 8000 ft
Mostly Cloudy 12000 ft
Windchill 22 °F
Dew Point 25 °F
Humidity 75%
Rainfall 0.03 in
Snow Depth Not available.
UV 0 out of 12
Pollen .10 out of 12
Air Quality Not available.
Flu Activity Not available.
METAR KTWF 281553Z 25013KT 10SM SCT016 SCT080 BKN120 00/M04 A3004 RMK AO2 SLP179 T00001039

More Conditions Fewer Conditions

Pressure 30.06 in
Visibility 10.0 miles
Clouds Scattered Clouds 1600 ft
Scattered Clouds 8000 ft
Mostly Cloudy 12000 ft
Windchill 22 °F
Dew Point 25 °F
Humidity 75%
Rainfall 0.03 in
Snow Depth Not available.
UV 0 out of 12
Pollen .10 out of 12
Air Quality Not available.
Flu Activity Not available.
METAR KTWF 281553Z 25013KT 10SM SCT016 SCT080 BKN120 00/M04 A3004 RMK AO2 SLP179 T00001039

More Conditions Fewer Conditions

Nowcast | as of 8:27 am MST on December 28, 2014

Expect patchy dense fog through around 11 am MST...10 am PST...along the Interstate 84 corridor between Baker City Oregon and Jerome Idaho. At 815 am dense fog 28 degree temperatures were reported at Nampa and Caldwell airports. Mountain Home reported dense fog and 30 at 811 am. Webcams across Baker County showed spots of dense fog near the Idaho border.

×

10-Day Weather Forecast

Almanac

Astronomy

Dec. 28, 2014 Rise Set
Actual Time
Civil Twilight
Nautical Twilight
Astronomical Twilight
Moon
Length of Visible Light
Length of Day
Tomorrow will be .
, % of the Moon is Illuminated

Today's Extremes

State Highs State Lows

Community

WunderPhotos

Upload Photos

1,781,314 photos uploaded!

WunderBlogs® & News

Nearby

Air Quality

  Air Quality AQ Index Pollutant
Not available.

Snow Depth

Station Depth Elevation

Earthquake Activity

City Distance Mag. Time & Date
Minimum magnitude displayed is 2.5.

Coastal Water Temperatures

Place Temperature

Nearby Weather Stations